Time;durP1;ratioP1;P1;durP2;ratioP2;P2;SDS_P1;SDS_P2;PMS_P1;PMS_P2;Temp;Humidity;BMP_temperature;BMP_pressure;BME280_temperature;BME280_humidity;BME280_pressure;Samples;Min_cycle;Max_cycle;Signal;HPM_P1;HPM_P2
2022/07/25 00:00:57;;;;;;;9.60;5.95;;;23.10;99.90;;;;;;5090327;28;20044;-92
2022/07/25 00:03:23;;;;;;;9.43;5.90;;;23.10;99.90;;;;;;5089980;28;20046;-93
2022/07/25 00:05:48;;;;;;;10.13;6.78;;;23.10;99.90;;;;;;5090435;28;20036;-93
2022/07/25 00:08:14;;;;;;;14.23;11.88;;;23.10;99.90;;;;;;5099850;28;20119;-93
2022/07/25 00:10:39;;;;;;;11.43;7.38;;;23.10;99.90;;;;;;5107929;28;20036;-93
2022/07/25 00:13:05;;;;;;;10.95;6.90;;;23.00;99.90;;;;;;5101786;28;20032;-92
2022/07/25 00:15:30;;;;;;;9.85;6.93;;;23.00;99.90;;;;;;5104181;28;20374;-92
2022/07/25 00:17:56;;;;;;;9.18;6.43;;;23.00;99.90;;;;;;5109108;28;20024;-93
2022/07/25 00:20:22;;;;;;;9.40;6.78;;;23.00;99.90;;;;;;5101446;28;20032;-93
2022/07/25 00:22:47;;;;;;;9.63;7.15;;;23.00;99.90;;;;;;5088581;28;20043;-93
2022/07/25 00:25:13;;;;;;;9.52;7.30;;;22.90;99.90;;;;;;5099318;28;20115;-92
2022/07/25 00:27:38;;;;;;;10.68;7.63;;;22.90;99.90;;;;;;5090252;28;20047;-93
2022/07/25 00:30:04;;;;;;;9.93;7.57;;;22.90;99.90;;;;;;5074143;28;20074;-93
2022/07/25 00:32:30;;;;;;;12.10;8.07;;;22.90;99.90;;;;;;5073903;28;20123;-93
2022/07/25 00:34:56;;;;;;;11.07;7.75;;;22.90;99.90;;;;;;5074075;28;20123;-93
2022/07/25 00:37:21;;;;;;;12.05;8.70;;;22.90;99.90;;;;;;5072346;28;20048;-92
2022/07/25 00:39:47;;;;;;;12.15;8.18;;;22.80;99.90;;;;;;5090025;28;20050;-93
2022/07/25 00:42:12;;;;;;;10.68;8.10;;;22.80;99.90;;;;;;5073057;28;20100;-93
2022/07/25 00:44:38;;;;;;;10.57;8.73;;;22.80;99.90;;;;;;5089709;28;20047;-92
2022/07/25 00:47:04;;;;;;;10.57;8.38;;;22.80;99.90;;;;;;5089571;28;20047;-93
2022/07/25 00:49:29;;;;;;;11.05;8.07;;;22.70;99.90;;;;;;5089149;28;20032;-93
2022/07/25 00:51:55;;;;;;;13.90;9.80;;;22.70;99.90;;;;;;5073222;28;20549;-93
2022/07/25 00:54:21;;;;;;;14.35;8.20;;;22.70;99.90;;;;;;5090133;28;20047;-93
2022/07/25 00:56:48;;;;;;;12.13;8.48;;;22.70;99.90;;;;;;5072167;28;20095;-93
2022/07/25 00:59:16;;;;;;;10.43;8.07;;;22.70;99.90;;;;;;5090097;28;20260;-93
2022/07/25 01:01:41;;;;;;;11.63;8.75;;;22.70;99.90;;;;;;5089360;28;20051;-93
2022/07/25 01:04:08;;;;;;;13.13;9.35;;;22.70;99.90;;;;;;5075813;28;20048;-93
2022/07/25 01:06:33;;;;;;;11.23;8.70;;;22.60;99.90;;;;;;5077242;28;20044;-92
2022/07/25 01:09:00;;;;;;;11.45;9.20;;;22.60;99.90;;;;;;5093194;28;20048;-92
2022/07/25 01:11:26;;;;;;;11.13;8.88;;;22.60;99.90;;;;;;5093618;28;20097;-93
2022/07/25 01:13:52;;;;;;;11.35;8.80;;;22.60;99.90;;;;;;5076899;28;20596;-92
2022/07/25 01:16:17;;;;;;;11.00;9.00;;;22.50;99.90;;;;;;5093000;28;20047;-93
2022/07/25 01:18:43;;;;;;;11.63;9.55;;;22.60;99.90;;;;;;5094195;28;20089;-93
2022/07/25 01:21:09;;;;;;;11.65;9.43;;;22.50;99.90;;;;;;5093185;28;20498;-93
2022/07/25 01:23:34;;;;;;;11.68;9.63;;;22.50;99.90;;;;;;5093998;28;20055;-92
2022/07/25 01:26:00;;;;;;;11.23;9.10;;;22.50;99.90;;;;;;5076509;28;20489;-93
2022/07/25 01:28:27;;;;;;;12.40;9.60;;;22.50;99.90;;;;;;5075824;28;20407;-93
2022/07/25 01:30:52;;;;;;;12.80;9.90;;;22.40;99.90;;;;;;5093291;28;20036;-93
2022/07/25 01:33:20;;;;;;;11.23;9.52;;;22.40;99.90;;;;;;5093883;28;20040;-93
2022/07/25 01:35:46;;;;;;;11.95;10.10;;;22.40;99.90;;;;;;5093802;28;20044;-93
2022/07/25 01:38:13;;;;;;;11.65;9.65;;;22.40;99.90;;;;;;5093310;28;20439;-93
2022/07/25 01:40:39;;;;;;;12.10;9.80;;;22.30;99.90;;;;;;5092343;28;20123;-93
2022/07/25 01:43:05;;;;;;;12.45;9.93;;;22.40;99.90;;;;;;5093451;28;20035;-92
2022/07/25 01:45:31;;;;;;;14.45;10.23;;;22.30;99.90;;;;;;5092735;28;20788;-93
2022/07/25 01:47:56;;;;;;;15.02;10.23;;;22.30;99.90;;;;;;5076268;28;20052;-93
2022/07/25 01:50:22;;;;;;;12.43;10.15;;;22.20;99.90;;;;;;5092587;28;20032;-93
2022/07/25 01:52:48;;;;;;;11.75;10.27;;;22.30;99.90;;;;;;5092725;28;20040;-93
2022/07/25 01:55:13;;;;;;;15.30;11.20;;;22.20;99.90;;;;;;5093267;28;20039;-93
2022/07/25 01:57:39;;;;;;;12.90;10.75;;;22.20;99.90;;;;;;5092300;28;20097;-93
2022/07/25 02:00:08;;;;;;;13.90;11.75;;;22.10;99.90;;;;;;5092428;28;20044;-93
2022/07/25 02:02:34;;;;;;;12.73;10.77;;;22.10;99.90;;;;;;5076233;28;20043;-93
2022/07/25 02:04:59;;;;;;;14.40;11.63;;;22.00;99.90;;;;;;5092256;28;20402;-93
2022/07/25 02:07:25;;;;;;;13.55;11.15;;;22.00;99.90;;;;;;5092429;28;20412;-93
2022/07/25 02:09:50;;;;;;;13.50;11.80;;;22.00;99.90;;;;;;5092819;28;20101;-92
2022/07/25 02:12:16;;;;;;;12.45;11.15;;;22.00;99.90;;;;;;5091377;28;20048;-92
2022/07/25 02:14:42;;;;;;;12.45;11.15;;;21.90;99.90;;;;;;5091199;28;20044;-93
2022/07/25 02:17:07;;;;;;;14.48;11.82;;;21.90;99.90;;;;;;5074884;28;20141;-93
2022/07/25 02:19:33;;;;;;;13.45;12.05;;;21.90;99.90;;;;;;5092423;28;20074;-92
2022/07/25 02:21:59;;;;;;;13.38;11.63;;;21.90;99.90;;;;;;5092642;28;20089;-92
2022/07/25 02:24:24;;;;;;;14.05;12.55;;;21.80;99.90;;;;;;5075011;28;20043;-92
2022/07/25 02:26:50;;;;;;;14.23;11.05;;;21.80;99.90;;;;;;5092272;28;20036;-92
2022/07/25 02:29:16;;;;;;;13.75;10.98;;;21.80;99.90;;;;;;5074599;28;20516;-92
2022/07/25 02:31:41;;;;;;;13.45;12.05;;;21.80;99.90;;;;;;5075564;28;20032;-93
2022/07/25 02:34:07;;;;;;;14.38;12.57;;;21.70;99.90;;;;;;5092321;28;20044;-92
2022/07/25 02:36:32;;;;;;;13.20;11.02;;;21.70;99.90;;;;;;5091903;28;20044;-92
2022/07/25 02:38:58;;;;;;;13.55;11.73;;;21.70;99.90;;;;;;5092156;28;20048;-92
2022/07/25 02:41:24;;;;;;;15.60;13.13;;;21.70;99.90;;;;;;5091168;28;20036;-92
2022/07/25 02:43:49;;;;;;;14.45;11.93;;;21.70;99.90;;;;;;5092198;28;20040;-92
2022/07/25 02:46:15;;;;;;;14.35;11.77;;;21.70;99.90;;;;;;5091158;28;20072;-92
2022/07/25 02:48:41;;;;;;;14.88;11.68;;;21.70;99.90;;;;;;5075078;28;20043;-92
2022/07/25 02:51:06;;;;;;;13.95;12.45;;;21.60;99.90;;;;;;5091638;28;20063;-92
2022/07/25 02:53:32;;;;;;;13.98;12.43;;;21.60;99.90;;;;;;5091162;28;20119;-92
2022/07/25 02:55:57;;;;;;;13.98;12.55;;;21.60;99.90;;;;;;5091787;28;20040;-92
2022/07/25 02:58:23;;;;;;;14.82;13.32;;;21.60;99.90;;;;;;5091192;28;20035;-93
2022/07/25 03:00:48;;;;;;;15.07;13.50;;;21.50;99.90;;;;;;5091506;28;20032;-93
2022/07/25 03:03:14;;;;;;;14.50;12.98;;;21.50;99.90;;;;;;5091336;28;20107;-93
2022/07/25 03:05:39;;;;;;;15.57;13.15;;;21.50;99.90;;;;;;5091099;28;20040;-93
2022/07/25 03:08:05;;;;;;;14.98;13.25;;;21.50;99.90;;;;;;5091496;28;20090;-92
2022/07/25 03:10:31;;;;;;;15.90;12.70;;;21.50;99.90;;;;;;5090983;28;20046;-92
2022/07/25 03:12:56;;;;;;;14.90;13.30;;;21.50;99.90;;;;;;5091345;28;20097;-93
2022/07/25 03:15:22;;;;;;;14.98;13.18;;;21.40;99.90;;;;;;5091077;28;20086;-92
2022/07/25 03:17:47;;;;;;;15.23;12.70;;;21.40;99.90;;;;;;5091333;28;20117;-93
2022/07/25 03:20:13;;;;;;;14.77;13.18;;;21.40;99.90;;;;;;5091196;28;20496;-92
2022/07/25 03:22:39;;;;;;;14.63;13.02;;;21.40;99.90;;;;;;5074033;28;20040;-92
2022/07/25 03:25:05;;;;;;;16.20;13.57;;;21.40;99.90;;;;;;5074032;28;20044;-93
2022/07/25 03:27:30;;;;;;;16.00;14.40;;;21.30;99.90;;;;;;5090260;28;20067;-93
2022/07/25 03:29:57;;;;;;;16.23;14.52;;;21.30;99.90;;;;;;5090740;28;20457;-92
2022/07/25 03:32:23;;;;;;;16.70;15.00;;;21.30;99.90;;;;;;5091371;28;20089;-92
2022/07/25 03:34:48;;;;;;;15.55;13.95;;;21.30;99.90;;;;;;5090774;28;20118;-93
2022/07/25 03:37:14;;;;;;;15.20;13.60;;;21.30;99.90;;;;;;5090897;28;20040;-93
2022/07/25 03:39:39;;;;;;;17.25;15.52;;;21.20;99.90;;;;;;5073722;28;20035;-92
2022/07/25 03:42:05;;;;;;;17.52;15.73;;;21.20;99.90;;;;;;5073446;28;20047;-92
2022/07/25 03:44:31;;;;;;;18.58;15.50;;;21.20;99.90;;;;;;5074219;28;20036;-92
2022/07/25 03:46:56;;;;;;;17.25;15.60;;;21.20;99.90;;;;;;5090399;28;20072;-93
2022/07/25 03:49:22;;;;;;;17.10;15.32;;;21.20;99.90;;;;;;5091025;28;20122;-93
2022/07/25 03:51:48;;;;;;;16.75;14.93;;;21.10;99.90;;;;;;5090163;28;20036;-92
2022/07/25 03:54:14;;;;;;;16.45;14.25;;;21.10;99.90;;;;;;5073933;28;20147;-92
2022/07/25 03:56:42;;;;;;;15.68;14.00;;;21.10;99.90;;;;;;5073489;28;20089;-92
2022/07/25 03:59:10;;;;;;;15.65;14.05;;;21.10;99.90;;;;;;5089658;28;20048;-92
2022/07/25 04:01:36;;;;;;;16.40;14.60;;;21.10;99.90;;;;;;5073938;28;20040;-92
2022/07/25 04:04:02;;;;;;;15.90;14.20;;;21.10;99.90;;;;;;5090036;28;20044;-92
2022/07/25 04:06:28;;;;;;;15.70;14.07;;;21.10;99.90;;;;;;5090657;28;20036;-93
2022/07/25 04:08:54;;;;;;;16.92;15.00;;;21.10;99.90;;;;;;5090176;28;20031;-92
2022/07/25 04:11:21;;;;;;;15.50;13.80;;;21.10;99.90;;;;;;5089871;28;20040;-92
2022/07/25 04:13:47;;;;;;;15.20;13.45;;;21.00;99.90;;;;;;5090469;28;20047;-92
2022/07/25 04:16:13;;;;;;;17.30;13.23;;;21.00;99.90;;;;;;5089856;28;20032;-92
2022/07/25 04:18:39;;;;;;;15.43;13.82;;;21.00;99.90;;;;;;5090130;28;20413;-92
2022/07/25 04:21:04;;;;;;;16.45;13.85;;;21.00;99.90;;;;;;5089789;28;20051;-92
2022/07/25 04:23:30;;;;;;;15.65;13.45;;;21.10;99.90;;;;;;5089766;28;20036;-92
2022/07/25 04:25:57;;;;;;;17.42;14.52;;;21.10;99.90;;;;;;5090521;28;20040;-92
2022/07/25 04:28:23;;;;;;;16.80;14.27;;;21.10;99.90;;;;;;5072811;28;20051;-92
2022/07/25 04:30:50;;;;;;;17.38;14.00;;;21.10;99.90;;;;;;5090168;28;20032;-92
2022/07/25 04:33:15;;;;;;;14.77;13.18;;;21.10;99.90;;;;;;5090438;28;20066;-92
2022/07/25 04:35:42;;;;;;;15.93;14.20;;;21.10;99.90;;;;;;5073146;28;20398;-92
2022/07/25 04:38:07;;;;;;;15.55;13.57;;;21.10;99.90;;;;;;5090804;28;20074;-92
2022/07/25 04:40:33;;;;;;;16.13;14.43;;;21.10;99.90;;;;;;5093955;28;20067;-92
2022/07/25 04:42:59;;;;;;;17.52;15.63;;;21.20;99.90;;;;;;5077146;28;20044;-91
2022/07/25 04:45:25;;;;;;;16.50;14.82;;;21.20;99.90;;;;;;5094233;28;20042;-92
2022/07/25 04:47:50;;;;;;;19.65;15.25;;;21.20;99.90;;;;;;5076672;28;20662;-92
2022/07/25 04:50:16;;;;;;;17.20;14.80;;;21.20;99.90;;;;;;5094473;28;20119;-93
2022/07/25 04:52:42;;;;;;;16.05;14.38;;;21.30;99.90;;;;;;5093744;28;20082;-92
2022/07/25 04:55:08;;;;;;;16.33;14.13;;;21.30;99.90;;;;;;5093669;28;20537;-92
2022/07/25 04:57:34;;;;;;;17.40;14.75;;;21.40;99.90;;;;;;5077170;28;20078;-92
2022/07/25 05:00:00;;;;;;;20.00;15.32;;;21.40;99.90;;;;;;5093972;28;20047;-92
2022/07/25 05:02:26;;;;;;;17.38;14.45;;;21.40;99.90;;;;;;5093815;28;20048;-93
2022/07/25 05:04:51;;;;;;;16.10;14.25;;;21.40;99.90;;;;;;5093470;28;20488;-92
2022/07/25 05:07:17;;;;;;;16.33;14.63;;;21.40;99.90;;;;;;5093378;28;20043;-93
2022/07/25 05:09:44;;;;;;;16.20;14.45;;;21.40;99.90;;;;;;5093854;28;20634;-92
2022/07/25 05:12:10;;;;;;;16.30;13.82;;;21.50;99.90;;;;;;5076600;28;20100;-93
2022/07/25 05:14:36;;;;;;;18.05;14.77;;;21.50;99.90;;;;;;5077274;28;20512;-93
2022/07/25 05:17:01;;;;;;;16.48;14.13;;;21.50;99.90;;;;;;5093802;28;20048;-93
2022/07/25 05:19:27;;;;;;;15.32;13.30;;;21.60;99.90;;;;;;5093260;28;20119;-93
2022/07/25 05:21:52;;;;;;;17.25;15.30;;;21.60;99.90;;;;;;5093698;28;20544;-93
2022/07/25 05:24:18;;;;;;;17.63;14.43;;;21.60;99.90;;;;;;5092937;28;20054;-93
2022/07/25 05:26:43;;;;;;;16.77;14.60;;;21.60;99.90;;;;;;5093464;28;20480;-93
2022/07/25 05:29:09;;;;;;;15.70;13.52;;;21.70;99.90;;;;;;5093348;28;20458;-92
2022/07/25 05:31:35;;;;;;;16.17;13.73;;;21.70;99.90;;;;;;5093090;28;20043;-93
2022/07/25 05:34:01;;;;;;;15.85;13.00;;;21.80;99.90;;;;;;5076747;28;20040;-93
2022/07/25 05:36:27;;;;;;;15.57;13.35;;;21.80;99.90;;;;;;5075971;28;20042;-93
2022/07/25 05:38:53;;;;;;;16.13;14.02;;;21.90;99.90;;;;;;5075479;28;20123;-93
2022/07/25 05:41:18;;;;;;;16.52;13.60;;;21.90;99.90;;;;;;5075777;28;20040;-93
2022/07/25 05:43:46;;;;;;;15.43;12.15;;;21.90;99.90;;;;;;5093126;28;20095;-93
2022/07/25 05:46:13;;;;;;;15.05;13.45;;;22.00;99.90;;;;;;5093134;28;20044;-93
2022/07/25 05:48:38;;;;;;;15.32;13.23;;;22.10;99.90;;;;;;5075227;28;20028;-93
2022/07/25 05:51:04;;;;;;;15.45;13.25;;;22.20;99.90;;;;;;5093077;28;20032;-93
2022/07/25 05:53:30;;;;;;;15.40;13.70;;;22.20;99.90;;;;;;5091825;28;20032;-93
2022/07/25 05:55:55;;;;;;;15.93;13.27;;;22.30;99.90;;;;;;5086760;28;20047;-93
2022/07/25 05:58:21;;;;;;;16.65;13.23;;;22.30;99.90;;;;;;5105911;28;20558;-93
2022/07/25 06:00:47;;;;;;;14.85;13.25;;;22.30;99.90;;;;;;5092034;28;20054;-93
2022/07/25 06:03:13;;;;;;;15.13;13.15;;;22.40;99.90;;;;;;5092869;28;20040;-94
2022/07/25 06:05:38;;;;;;;14.30;12.05;;;22.40;99.90;;;;;;5092089;28;20044;-93
2022/07/25 06:08:04;;;;;;;14.05;12.38;;;22.50;99.90;;;;;;5092493;28;20036;-93
2022/07/25 06:10:30;;;;;;;17.08;12.98;;;22.60;99.90;;;;;;5092240;28;20036;-94
2022/07/25 06:12:55;;;;;;;14.57;13.07;;;22.60;99.90;;;;;;5092519;28;20036;-93
2022/07/25 06:15:21;;;;;;;15.35;11.45;;;22.70;99.90;;;;;;5093045;28;20043;-94
2022/07/25 06:17:46;;;;;;;14.57;12.73;;;22.80;99.90;;;;;;5090218;28;20032;-93
2022/07/25 06:20:12;;;;;;;13.82;12.20;;;22.80;99.90;;;;;;5092461;28;20035;-93
2022/07/25 06:22:39;;;;;;;15.38;11.85;;;22.90;99.90;;;;;;5075077;28;20420;-93
2022/07/25 06:25:05;;;;;;;14.82;11.32;;;22.90;99.90;;;;;;5092400;28;20040;-93
2022/07/25 06:27:31;;;;;;;14.27;10.85;;;23.00;99.90;;;;;;5091590;28;20405;-94
2022/07/25 06:29:57;;;;;;;16.08;11.38;;;23.00;99.90;;;;;;5092100;28;20035;-93
2022/07/25 06:32:23;;;;;;;13.90;10.93;;;23.10;99.90;;;;;;5092124;28;20036;-94
2022/07/25 06:34:48;;;;;;;13.23;9.93;;;23.20;99.90;;;;;;5092172;28;20509;-94
2022/07/25 06:37:14;;;;;;;13.57;10.93;;;23.20;99.90;;;;;;5091290;28;20040;-93
2022/07/25 06:39:40;;;;;;;13.95;10.18;;;23.20;99.90;;;;;;5091074;28;20032;-94
2022/07/25 06:42:06;;;;;;;13.77;10.40;;;23.20;99.90;;;;;;5092063;28;20093;-94
2022/07/25 06:44:32;;;;;;;12.73;10.35;;;23.30;99.90;;;;;;5091328;28;20063;-93
2022/07/25 06:47:01;;;;;;;12.23;9.57;;;23.30;99.90;;;;;;5075408;28;20048;-93
2022/07/25 06:49:26;;;;;;;14.10;9.88;;;23.40;99.90;;;;;;5091232;28;20051;-94
2022/07/25 06:51:52;;;;;;;12.43;10.20;;;23.50;99.90;;;;;;5074639;28;20028;-93
2022/07/25 06:54:18;;;;;;;13.57;10.45;;;23.60;99.90;;;;;;5074911;28;20046;-94
2022/07/25 06:56:44;;;;;;;15.13;11.32;;;23.60;99.90;;;;;;5074307;28;20036;-93
2022/07/25 06:59:09;;;;;;;12.73;10.85;;;23.70;99.90;;;;;;5090442;28;20043;-93
2022/07/25 07:01:36;;;;;;;14.23;10.98;;;23.70;99.90;;;;;;5090131;28;20382;-94
2022/07/25 07:04:01;;;;;;;13.40;10.85;;;23.80;99.90;;;;;;5091331;28;20183;-94
2022/07/25 07:06:27;;;;;;;15.70;11.50;;;23.90;99.90;;;;;;5091093;28;20462;-94
2022/07/25 07:08:53;;;;;;;14.68;11.93;;;23.90;99.90;;;;;;5073589;28;20039;-93
2022/07/25 07:11:18;;;;;;;15.60;12.77;;;24.00;99.90;;;;;;5092578;28;20035;-93
2022/07/25 07:13:44;;;;;;;17.48;12.65;;;24.00;99.90;;;;;;5090718;28;20032;-94
2022/07/25 07:16:10;;;;;;;14.02;12.10;;;24.10;99.90;;;;;;5091739;28;20707;-94
2022/07/25 07:18:36;;;;;;;14.98;12.77;;;24.20;99.90;;;;;;5090936;28;20044;-93
2022/07/25 07:21:03;;;;;;;14.48;12.98;;;24.20;99.90;;;;;;5090640;28;20123;-93
2022/07/25 07:23:28;;;;;;;14.15;12.45;;;24.30;99.90;;;;;;5091405;28;20094;-94
2022/07/25 07:25:54;;;;;;;16.20;12.32;;;24.40;99.90;;;;;;5090808;28;20139;-93
2022/07/25 07:28:20;;;;;;;15.18;13.57;;;24.50;99.90;;;;;;5090503;28;20543;-94
2022/07/25 07:30:45;;;;;;;14.88;13.18;;;24.50;99.90;;;;;;5073701;28;20153;-93
2022/07/25 07:33:11;;;;;;;15.80;13.38;;;24.60;99.90;;;;;;5092243;28;20097;-93
2022/07/25 07:35:36;;;;;;;15.18;12.77;;;24.70;99.90;;;;;;5090921;28;20390;-93
2022/07/25 07:38:02;;;;;;;16.85;13.55;;;24.80;99.90;;;;;;5090354;28;20067;-93
2022/07/25 07:40:28;;;;;;;17.25;12.98;;;24.80;99.90;;;;;;5090789;28;20036;-93
2022/07/25 07:42:55;;;;;;;16.38;12.52;;;24.90;99.90;;;;;;5090370;28;20537;-93
2022/07/25 07:45:23;;;;;;;15.02;12.50;;;24.90;99.90;;;;;;5090442;28;20520;-93
2022/07/25 07:47:51;;;;;;;15.10;11.38;;;24.90;99.90;;;;;;5088887;28;20119;-93
2022/07/25 07:50:20;;;;;;;13.73;10.73;;;25.00;99.90;;;;;;5089370;28;20525;-94
2022/07/25 07:52:46;;;;;;;14.15;11.15;;;25.00;99.90;;;;;;5073612;28;20074;-94
2022/07/25 07:57:58;;;;;;;15.65;11.48;;;25.10;99.90;;;;;;5089985;28;20079;-94
2022/07/25 08:00:26;;;;;;;16.45;11.75;;;25.20;99.90;;;;;;5090456;28;20059;-93
2022/07/25 08:02:53;;;;;;;14.13;11.30;;;25.20;99.90;;;;;;5090154;28;20100;-94
2022/07/25 08:05:21;;;;;;;14.93;11.10;;;25.20;99.90;;;;;;5090624;28;20071;-93
2022/07/25 08:07:47;;;;;;;12.60;11.02;;;25.20;99.90;;;;;;5100217;28;20054;-93
2022/07/25 08:10:13;;;;;;;16.48;11.23;;;25.20;99.90;;;;;;5101770;28;20039;-93
2022/07/25 08:12:40;;;;;;;15.23;11.77;;;25.30;99.90;;;;;;5084651;28;20020;-94
2022/07/25 08:15:07;;;;;;;13.90;11.50;;;25.30;99.90;;;;;;5104043;28;20040;-93
2022/07/25 08:17:32;;;;;;;14.43;12.13;;;25.30;99.90;;;;;;5109323;28;20050;-93
2022/07/25 08:19:58;;;;;;;13.27;11.75;;;25.30;99.90;;;;;;5092505;28;20032;-94
2022/07/25 08:22:23;;;;;;;17.23;13.32;;;25.20;99.90;;;;;;5093893;28;20043;-94
2022/07/25 08:24:49;;;;;;;15.32;12.50;;;25.10;99.90;;;;;;5104480;28;20028;-94
2022/07/25 08:27:15;;;;;;;15.45;11.90;;;25.10;99.90;;;;;;5101887;28;20425;-93
2022/07/25 08:29:40;;;;;;;13.85;11.98;;;25.00;99.90;;;;;;5090450;28;20044;-93
2022/07/25 08:32:06;;;;;;;14.13;12.00;;;25.00;99.90;;;;;;5092610;28;20036;-93
2022/07/25 08:34:31;;;;;;;13.07;11.40;;;25.00;99.90;;;;;;5090109;28;20515;-93
2022/07/25 08:36:57;;;;;;;14.98;11.55;;;24.90;99.90;;;;;;5073749;28;20039;-93
2022/07/25 08:39:22;;;;;;;14.27;11.25;;;24.80;99.90;;;;;;5091297;28;20489;-93
2022/07/25 08:41:48;;;;;;;13.52;10.40;;;24.80;99.90;;;;;;5090879;28;20513;-93
2022/07/25 08:44:17;;;;;;;14.02;10.15;;;24.70;99.90;;;;;;5091436;28;20059;-92
2022/07/25 08:46:44;;;;;;;14.52;9.02;;;24.70;99.90;;;;;;5090990;28;20072;-93
2022/07/25 08:49:10;;;;;;;11.73;7.72;;;24.70;99.90;;;;;;5088972;28;20040;-93
2022/07/25 08:51:37;;;;;;;9.63;7.05;;;24.70;99.90;;;;;;5072993;28;20028;-93
2022/07/25 08:54:03;;;;;;;10.75;6.32;;;24.70;99.90;;;;;;5071124;28;20076;-93
2022/07/25 08:56:29;;;;;;;9.55;5.63;;;24.70;99.90;;;;;;5071163;28;20072;-93
2022/07/25 08:58:57;;;;;;;9.95;6.20;;;24.80;99.90;;;;;;5090888;28;20460;-94
2022/07/25 09:01:23;;;;;;;10.55;6.47;;;24.80;99.90;;;;;;5091688;28;20040;-93
2022/07/25 09:03:48;;;;;;;11.43;6.15;;;24.80;99.90;;;;;;5091237;28;20076;-93
2022/07/25 09:06:19;;;;;;;10.65;6.15;;;24.80;99.90;;;;;;5091067;28;20048;-94
2022/07/25 09:08:56;;;;;;;9.57;5.88;;;24.70;99.90;;;;;;5089666;28;20055;-94
2022/07/25 09:11:26;;;;;;;8.88;5.53;;;24.70;99.90;;;;;;5089182;28;20101;-93
2022/07/25 09:14:03;;;;;;;11.77;5.90;;;24.60;99.90;;;;;;5089968;28;20386;-93
2022/07/25 09:16:32;;;;;;;11.65;5.75;;;24.60;99.90;;;;;;5089463;28;20040;-93
2022/07/25 09:19:10;;;;;;;9.30;6.10;;;24.60;99.90;;;;;;5090937;28;20051;-93
2022/07/25 09:21:38;;;;;;;10.07;6.07;;;24.60;99.90;;;;;;5090542;28;20543;-93
2022/07/25 09:24:16;;;;;;;11.45;6.80;;;24.60;99.90;;;;;;5090398;28;20036;-93
2022/07/25 09:26:43;;;;;;;11.50;6.85;;;24.60;99.90;;;;;;5095246;28;20040;-94
2022/07/25 09:29:17;;;;;;;10.93;6.90;;;24.60;99.90;;;;;;5093313;28;20082;-93
2022/07/25 09:31:42;;;;;;;10.07;6.97;;;24.50;99.90;;;;;;5092929;28;20532;-93
2022/07/25 09:34:09;;;;;;;11.82;7.03;;;24.50;99.90;;;;;;5092958;28;20071;-93
2022/07/25 09:36:38;;;;;;;10.05;6.85;;;24.50;99.90;;;;;;5093138;28;20035;-93
2022/07/25 09:39:05;;;;;;;11.13;6.97;;;24.50;99.90;;;;;;5094114;28;20505;-92
2022/07/25 09:41:35;;;;;;;10.60;7.00;;;24.50;99.90;;;;;;5092761;28;20044;-93
2022/07/25 09:44:00;;;;;;;12.00;7.60;;;24.50;99.90;;;;;;5093179;28;20044;-93
2022/07/25 09:46:30;;;;;;;10.93;8.10;;;24.60;99.90;;;;;;5094347;28;20039;-92
2022/07/25 09:48:58;;;;;;;11.90;7.68;;;24.70;99.90;;;;;;5093565;28;20048;-92
2022/07/25 09:51:25;;;;;;;12.00;8.45;;;24.70;99.90;;;;;;5093377;28;20046;-93
2022/07/25 09:53:51;;;;;;;11.02;7.72;;;24.70;99.90;;;;;;5092563;28;20040;-93
2022/07/25 09:56:16;;;;;;;11.20;8.18;;;24.70;99.90;;;;;;5092482;28;20124;-93
2022/07/25 09:58:42;;;;;;;10.55;7.38;;;24.80;99.90;;;;;;5083815;28;20102;-93
2022/07/25 10:01:08;;;;;;;10.63;7.30;;;24.70;99.90;;;;;;5080307;28;20430;-94
2022/07/25 10:03:50;;;;;;;9.68;6.82;;;24.80;99.90;;;;;;5079108;28;20078;-93
2022/07/25 10:06:29;;;;;;;8.60;4.00;;;24.80;99.90;;;;;;5083922;28;20040;-94
2022/07/25 10:08:56;;;;;;;6.70;3.13;;;24.80;99.90;;;;;;5093914;28;20035;-93
2022/07/25 10:11:24;;;;;;;7.25;2.58;;;24.90;99.90;;;;;;5092728;28;20117;-93
2022/07/25 10:13:51;;;;;;;5.75;2.25;;;24.80;98.70;;;;;;5093381;28;20031;-93
2022/07/25 10:16:25;;;;;;;8.10;2.72;;;24.80;97.50;;;;;;5086845;28;20458;-93
2022/07/25 10:18:58;;;;;;;7.50;2.50;;;24.70;97.20;;;;;;5083509;28;20032;-93
2022/07/25 10:21:25;;;;;;;5.88;2.30;;;24.60;97.70;;;;;;5081616;28;20105;-93
2022/07/25 10:24:09;;;;;;;6.57;2.50;;;24.50;99.00;;;;;;5085409;28;20032;-93
2022/07/25 10:26:49;;;;;;;7.07;2.88;;;24.50;99.90;;;;;;5083174;28;20583;-92
2022/07/25 10:29:15;;;;;;;7.05;3.10;;;24.40;99.90;;;;;;5077631;28;20115;-93
2022/07/25 10:31:44;;;;;;;8.27;3.15;;;24.40;99.90;;;;;;5106550;28;20111;-93
2022/07/25 10:34:12;;;;;;;7.80;3.50;;;24.50;99.90;;;;;;5109091;28;20043;-92
2022/07/25 10:36:45;;;;;;;8.25;3.45;;;24.50;99.90;;;;;;5107567;28;20055;-92
2022/07/25 10:39:13;;;;;;;7.45;3.00;;;24.60;99.90;;;;;;5091932;28;20050;-92
2022/07/25 10:41:40;;;;;;;6.60;3.08;;;24.70;99.90;;;;;;5093118;28;20040;-93
2022/07/25 10:44:12;;;;;;;6.22;2.88;;;24.70;99.90;;;;;;5091897;28;20036;-92
2022/07/25 10:46:37;;;;;;;7.82;2.97;;;24.80;99.90;;;;;;5092405;28;20058;-93
2022/07/25 10:49:07;;;;;;;8.48;3.88;;;25.00;99.90;;;;;;5092027;28;20411;-92
2022/07/25 10:51:36;;;;;;;8.27;3.03;;;25.00;99.90;;;;;;5093640;28;20388;-93
2022/07/25 10:54:15;;;;;;;7.25;3.22;;;25.10;99.90;;;;;;5093253;28;20047;-92
2022/07/25 10:56:56;;;;;;;7.85;3.10;;;25.10;99.90;;;;;;5092950;28;20028;-93
2022/07/25 10:59:29;;;;;;;6.72;3.40;;;25.10;99.90;;;;;;5074827;28;20100;-92
2022/07/25 11:01:55;;;;;;;7.35;3.22;;;25.10;99.90;;;;;;5091216;28;20115;-92
2022/07/25 11:04:22;;;;;;;6.60;2.70;;;25.10;99.90;;;;;;5092805;28;20040;-93
2022/07/25 11:06:48;;;;;;;7.13;2.90;;;25.00;99.90;;;;;;5091169;28;20040;-93
2022/07/25 11:09:19;;;;;;;8.13;2.58;;;25.00;99.90;;;;;;5081510;28;20028;-92
2022/07/25 11:11:47;;;;;;;6.87;2.20;;;25.00;99.90;;;;;;5091771;28;20046;-93
2022/07/25 11:14:42;;;;;;;6.25;2.30;;;25.00;99.90;;;;;;5089795;28;20289;-93
2022/07/25 11:17:29;;;;;;;7.57;2.50;;;24.90;99.90;;;;;;5086812;28;20048;-93
2022/07/25 11:19:58;;;;;;;7.05;2.20;;;24.80;99.90;;;;;;5090396;28;20512;-92
2022/07/25 11:22:26;;;;;;;10.10;2.72;;;24.60;99.90;;;;;;5073951;28;20058;-93
2022/07/25 11:24:51;;;;;;;8.52;2.95;;;24.40;99.90;;;;;;5090696;28;20043;-92
2022/07/25 11:27:21;;;;;;;8.18;2.60;;;24.30;99.90;;;;;;5091215;28;20413;-93
2022/07/25 11:29:47;;;;;;;7.40;2.80;;;24.20;99.90;;;;;;5090866;28;20051;-92
2022/07/25 11:32:13;;;;;;;7.32;2.53;;;24.20;99.90;;;;;;5090503;28;20036;-93
2022/07/25 11:34:48;;;;;;;7.93;2.22;;;24.10;99.90;;;;;;5090813;28;20047;-93
2022/07/25 11:37:14;;;;;;;6.22;2.33;;;24.30;99.90;;;;;;5090466;28;20075;-93
2022/07/25 11:39:42;;;;;;;6.75;2.40;;;24.40;99.90;;;;;;5092002;28;20401;-93
2022/07/25 11:42:16;;;;;;;6.38;2.15;;;24.50;99.90;;;;;;5074147;28;20129;-93
2022/07/25 11:44:48;;;;;;;7.75;2.33;;;24.50;99.90;;;;;;5089392;28;20201;-93
2022/07/25 11:47:28;;;;;;;7.03;2.25;;;24.60;99.90;;;;;;5075172;28;20045;-93
2022/07/25 11:49:57;;;;;;;6.25;1.83;;;24.70;99.90;;;;;;5072887;28;20490;-93
2022/07/25 11:52:24;;;;;;;6.65;1.98;;;24.70;99.90;;;;;;5090498;28;20121;-93
2022/07/25 11:54:55;;;;;;;6.93;2.17;;;24.60;99.90;;;;;;5090838;28;20397;-93
2022/07/25 11:57:26;;;;;;;7.97;2.30;;;24.60;99.90;;;;;;5091122;28;20036;-92
2022/07/25 11:59:53;;;;;;;8.13;2.55;;;24.50;99.90;;;;;;5107397;28;20028;-93
2022/07/25 12:02:29;;;;;;;7.55;2.53;;;24.40;99.90;;;;;;5090122;28;20044;-92
2022/07/25 12:05:00;;;;;;;7.88;3.05;;;24.40;99.90;;;;;;5091909;28;20040;-93
2022/07/25 12:07:45;;;;;;;8.55;2.45;;;24.40;99.90;;;;;;5091144;28;20505;-93
2022/07/25 12:10:18;;;;;;;9.90;2.85;;;24.40;99.90;;;;;;5089726;28;20076;-93
2022/07/25 12:12:53;;;;;;;9.65;3.00;;;24.50;99.90;;;;;;5089729;28;20048;-94
2022/07/25 12:15:23;;;;;;;9.85;3.15;;;24.50;99.90;;;;;;5090258;28;20039;-93
2022/07/25 12:17:50;;;;;;;11.13;3.33;;;24.40;99.90;;;;;;5091015;28;20036;-93
2022/07/25 12:20:19;;;;;;;9.45;3.30;;;24.40;99.90;;;;;;5089200;28;20122;-92
2022/07/25 12:22:45;;;;;;;10.20;3.00;;;24.40;99.90;;;;;;5092091;28;20040;-93
2022/07/25 12:25:11;;;;;;;9.55;2.78;;;24.40;99.90;;;;;;5088955;28;20058;-93
2022/07/25 12:27:37;;;;;;;9.52;2.88;;;24.50;99.90;;;;;;5091953;28;20079;-93
2022/07/25 12:30:05;;;;;;;9.18;2.75;;;24.60;99.90;;;;;;5089349;28;20493;-93
2022/07/25 12:32:30;;;;;;;9.23;2.65;;;24.70;99.90;;;;;;5089660;28;20048;-93
2022/07/25 12:34:56;;;;;;;8.73;2.38;;;24.60;99.90;;;;;;5073382;28;20058;-93